Time;durP1;ratioP1;P1;durP2;ratioP2;P2;SDS_P1;SDS_P2;PMS_P1;PMS_P2;Temp;Humidity;BMP_temperature;BMP_pressure;BME280_temperature;BME280_humidity;BME280_pressure;Samples;Min_cycle;Max_cycle;Signal;HPM_P1;HPM_P2
2023/01/13 00:01:58;;;;;;;;;;;9.70;99.90;;;;;;5033908;28;19927;-71
2023/01/13 00:04:24;;;;;;;;;;;9.70;99.90;;;;;;5016535;28;19921;-71
2023/01/13 00:06:49;;;;;;;;;;;9.70;99.90;;;;;;5033541;28;19928;-70
2023/01/13 00:09:15;;;;;;;;;;;9.60;99.90;;;;;;5032712;28;20402;-71
2023/01/13 00:11:40;;;;;;;;;;;9.60;99.90;;;;;;5033612;28;19928;-71
2023/01/13 00:14:06;;;;;;;;;;;9.40;99.90;;;;;;5032344;28;20723;-71
2023/01/13 00:16:31;;;;;;;;;;;9.60;99.90;;;;;;5031990;28;19921;-71
2023/01/13 00:18:57;;;;;;;;;;;9.50;99.90;;;;;;5032382;28;20008;-71
2023/01/13 00:21:23;;;;;;;;;;;9.50;99.90;;;;;;5016102;28;19928;-70
2023/01/13 00:23:50;;;;;;;;;;;9.50;99.90;;;;;;5032223;28;19921;-70
2023/01/13 00:26:20;;;;;;;;;;;9.60;99.90;;;;;;5033183;28;19932;-71
2023/01/13 00:28:46;;;;;;;;;;;9.40;99.90;;;;;;5015897;28;19928;-71
2023/01/13 00:31:13;;;;;;;;;;;9.40;99.90;;;;;;5033287;28;19921;-71
2023/01/13 00:33:38;;;;;;;;;;;9.60;99.90;;;;;;5032563;28;19928;-71
2023/01/13 00:36:05;;;;;;;;;;;9.50;99.90;;;;;;5015521;28;19921;-71
2023/01/13 00:38:31;;;;;;;;;;;9.30;99.90;;;;;;5032180;28;19925;-71
2023/01/13 00:40:58;;;;;;;;;;;9.30;99.90;;;;;;5032183;28;19964;-71
2023/01/13 00:43:24;;;;;;;;;;;9.70;99.90;;;;;;5032139;28;20003;-71
2023/01/13 00:45:50;;;;;;;;;;;9.40;99.90;;;;;;5031989;28;20322;-71
2023/01/13 00:48:17;;;;;;;;;;;9.30;99.90;;;;;;5032425;28;19976;-71
2023/01/13 00:50:43;;;;;;;;;;;9.40;99.90;;;;;;5032276;28;20078;-71
2023/01/13 00:53:08;;;;;;;;;;;9.40;99.90;;;;;;5031826;28;20402;-71
2023/01/13 00:55:34;;;;;;;;;;;9.30;99.90;;;;;;5030764;28;19921;-71
2023/01/13 00:58:02;;;;;;;;;;;9.40;99.90;;;;;;5033119;28;20015;-70
2023/01/13 01:00:33;;;;;;;;;;;9.20;99.90;;;;;;5033059;28;19928;-71
2023/01/13 01:02:59;;;;;;;;;;;9.20;99.90;;;;;;5015310;28;19978;-71
2023/01/13 01:05:25;;;;;;;;;;;9.30;99.90;;;;;;5032613;28;19921;-71
2023/01/13 01:07:50;;;;;;;;;;;9.30;99.90;;;;;;5031423;28;20398;-71
2023/01/13 01:10:16;;;;;;;;;;;9.40;99.90;;;;;;5031983;28;19921;-71
2023/01/13 01:12:42;;;;;;;;;;;9.20;99.90;;;;;;5032652;28;19922;-71
2023/01/13 01:15:08;;;;;;;;;;;9.20;99.90;;;;;;5031936;28;20000;-71
2023/01/13 01:17:35;;;;;;;;;;;9.20;99.90;;;;;;5031163;28;20322;-71
2023/01/13 01:20:01;;;;;;;;;;;9.10;99.90;;;;;;5032363;28;19921;-71
2023/01/13 01:22:26;;;;;;;;;;;9.30;99.90;;;;;;5032613;28;19928;-71
2023/01/13 01:24:52;;;;;;;;;;;9.20;99.90;;;;;;5015174;28;20383;-72
2023/01/13 01:27:17;;;;;;;;;;;9.20;99.90;;;;;;5032862;28;19925;-73
2023/01/13 01:29:43;;;;;;;;;;;9.30;99.90;;;;;;5031633;28;19987;-72
2023/01/13 01:32:08;;;;;;;;;;;9.10;99.90;;;;;;5032456;28;19921;-72
2023/01/13 01:34:34;;;;;;;;;;;;;;;;;;5014918;28;19921;-72
2023/01/13 01:37:00;;;;;;;;;;;9.00;99.90;;;;;;5031212;28;19929;-72
2023/01/13 01:39:25;;;;;;;;;;;9.00;99.90;;;;;;5014867;28;19956;-72
2023/01/13 01:44:41;;;;;;;;;;;9.30;99.90;;;;;;5045783;28;20011;-72
2023/01/13 01:47:08;;;;;;;;;;;9.10;99.90;;;;;;5050641;28;19925;-71
2023/01/13 01:49:34;;;;;;;;;;;9.60;99.90;;;;;;5052549;28;20011;-72
2023/01/13 01:51:59;;;;;;;;;;;9.20;99.90;;;;;;5052160;28;19921;-72
2023/01/13 01:54:25;;;;;;;;;;;;;;;;;;5034081;28;19920;-72
2023/01/13 01:56:51;;;;;;;;;;;9.00;99.90;;;;;;5033998;28;20465;-72
2023/01/13 01:59:17;;;;;;;;;;;9.10;99.90;;;;;;5034546;28;19921;-72
2023/01/13 02:01:43;;;;;;;;;;;9.10;99.90;;;;;;5050701;28;20340;-72
2023/01/13 02:04:14;;;;;;;;;;;9.20;99.90;;;;;;5042627;28;19921;-72
2023/01/13 02:06:41;;;;;;;;;;;9.10;99.90;;;;;;5014798;28;19979;-72
2023/01/13 02:09:07;;;;;;;;;;;9.20;99.90;;;;;;5034926;28;20008;-72
2023/01/13 02:14:19;;;;;;;;;;;9.10;99.90;;;;;;5034957;28;20336;-72
2023/01/13 02:17:11;;;;;;;;;;;9.00;99.90;;;;;;5034068;28;19921;-72
2023/01/13 02:19:39;;;;;;;;;;;9.30;99.90;;;;;;5019668;28;20319;-71
2023/01/13 02:22:14;;;;;;;;;;;9.30;99.90;;;;;;5034229;28;19937;-72
2023/01/13 02:24:53;;;;;;;;;;;9.20;99.90;;;;;;5035581;28;19948;-71
2023/01/13 02:27:37;;;;;;;;;;;9.10;99.90;;;;;;5033721;28;19925;-72
2023/01/13 02:32:53;;;;;;;;;;;9.20;99.90;;;;;;5035513;28;19921;-72
2023/01/13 02:35:34;;;;;;;;;;;9.30;99.90;;;;;;5051904;28;20397;-71
2023/01/13 02:38:01;;;;;;;;;;;9.20;99.90;;;;;;5054140;28;19966;-72
2023/01/13 02:40:32;;;;;;;;;;;9.10;99.90;;;;;;5054064;28;19927;-71
2023/01/13 02:46:03;;;;;;;;;;;9.20;99.90;;;;;;5054486;28;19924;-71
2023/01/13 02:48:29;;;;;;;;;;;9.20;99.90;;;;;;5054199;28;19925;-72
2023/01/13 02:50:58;;;;;;;;;;;9.20;99.90;;;;;;5053618;28;19921;-71
2023/01/13 02:53:34;;;;;;;;;;;9.10;99.90;;;;;;5037239;28;19967;-72
2023/01/13 02:56:02;;;;;;;;;;;9.20;99.90;;;;;;5054532;28;19932;-71
2023/01/13 02:58:29;;;;;;;;;;;9.40;99.90;;;;;;5054951;28;19964;-72
2023/01/13 03:00:54;;;;;;;;;;;9.40;99.90;;;;;;5054911;28;19920;-72
2023/01/13 03:03:20;;;;;;;;;;;9.30;99.90;;;;;;5054359;28;19927;-71
2023/01/13 03:05:46;;;;;;;;;;;9.30;99.90;;;;;;5036394;28;19924;-71
2023/01/13 03:08:30;;;;;;;;;;;9.30;99.90;;;;;;5052985;28;20398;-71
2023/01/13 03:11:10;;;;;;;;;;;9.20;99.90;;;;;;5053702;28;20386;-72
2023/01/13 03:13:48;;;;;;;;;;;9.20;99.90;;;;;;5053467;28;19921;-72
2023/01/13 03:16:19;;;;;;;;;;;9.40;99.90;;;;;;5036654;28;19924;-71
2023/01/13 03:18:45;;;;;;;;;;;9.40;99.90;;;;;;5035258;28;19921;-72
2023/01/13 03:21:29;;;;;;;;;;;9.40;99.90;;;;;;5054413;28;20337;-72
2023/01/13 03:23:55;;;;;;;;;;;9.40;99.90;;;;;;5052712;28;20382;-71
2023/01/13 03:26:27;;;;;;;;;;;9.30;99.90;;;;;;5053023;28;19983;-71
2023/01/13 03:28:53;;;;;;;;;;;;;;;;;;5054273;28;19955;-71
2023/01/13 03:31:22;;;;;;;;;;;9.50;99.90;;;;;;5052778;28;20381;-72
2023/01/13 03:33:53;;;;;;;;;;;9.50;99.90;;;;;;5044199;28;19928;-72
2023/01/13 03:36:21;;;;;;;;;;;9.50;99.90;;;;;;5032657;28;19925;-72
2023/01/13 03:38:55;;;;;;;;;;;9.20;99.90;;;;;;5032915;28;19928;-71
2023/01/13 03:41:23;;;;;;;;;;;9.30;99.90;;;;;;5034163;28;20007;-71
2023/01/13 03:44:22;;;;;;;;;;;9.50;99.90;;;;;;5016498;28;20027;-71
2023/01/13 03:46:57;;;;;;;;;;;9.30;99.90;;;;;;5032459;28;19925;-74
2023/01/13 03:49:25;;;;;;;;;;;9.30;99.90;;;;;;5033365;28;19955;-71
2023/01/13 03:51:54;;;;;;;;;;;9.30;99.90;;;;;;5032949;28;20047;-72
2023/01/13 03:54:21;;;;;;;;;;;9.20;99.90;;;;;;5033052;28;20352;-72
2023/01/13 03:56:48;;;;;;;;;;;9.50;99.90;;;;;;5032389;28;20448;-71
2023/01/13 03:59:19;;;;;;;;;;;9.20;99.90;;;;;;5034021;28;20011;-72
2023/01/13 04:02:01;;;;;;;;;;;9.20;99.90;;;;;;5033739;28;19921;-71
2023/01/13 04:04:33;;;;;;;;;;;9.20;99.90;;;;;;5032696;28;19943;-71
2023/01/13 04:07:22;;;;;;;;;;;9.10;99.90;;;;;;5033223;28;19971;-71
2023/01/13 04:09:52;;;;;;;;;;;9.00;99.90;;;;;;5033375;28;19975;-72
2023/01/13 04:12:59;;;;;;;;;;;9.10;99.90;;;;;;5033158;28;20383;-72
2023/01/13 04:15:14;;;;;;;;;;;9.10;99.90;;;;;;5031630;28;19929;-72
2023/01/13 04:17:40;;;;;;;;;;;9.20;99.90;;;;;;5031795;28;19975;-72
2023/01/13 04:20:06;;;;;;;;;;;9.20;99.90;;;;;;5033220;28;19921;-71
2023/01/13 04:22:31;;;;;;;;;;;9.30;99.90;;;;;;5032208;28;19927;-71
2023/01/13 04:24:57;;;;;;;;;;;9.00;99.90;;;;;;5068572;22;19985;-72
2023/01/13 04:27:22;;;;;;;;;;;9.30;99.90;;;;;;5070853;28;20329;-72
2023/01/13 04:29:48;;;;;;;;;;;9.40;99.90;;;;;;5072526;28;20278;-73
2023/01/13 04:32:13;;;;;;;;;;;9.20;99.90;;;;;;5054626;28;19921;-72
2023/01/13 04:34:39;;;;;;;;;;;9.10;99.90;;;;;;5054287;28;19994;-72
2023/01/13 04:37:04;;;;;;;;;;;10.00;99.90;;;;;;5071925;28;19920;-72
2023/01/13 04:39:30;;;;;;;;;;;9.20;99.90;;;;;;5072678;28;19920;-71
2023/01/13 04:41:58;;;;;;;;;;;9.50;99.90;;;;;;5054262;28;19924;-72
2023/01/13 04:44:25;;;;;;;;;;;9.30;99.90;;;;;;5054721;28;20415;-73
2023/01/13 04:46:50;;;;;;;;;;;9.40;99.90;;;;;;5037384;28;19925;-73
2023/01/13 04:49:16;;;;;;;;;;;9.40;99.90;;;;;;5054524;28;19920;-72
2023/01/13 04:51:41;;;;;;;;;;;10.30;99.90;;;;;;5054642;28;20305;-72
2023/01/13 04:54:08;;;;;;;;;;;9.30;99.90;;;;;;5054273;28;19920;-72
2023/01/13 04:56:34;;;;;;;;;;;9.60;99.90;;;;;;5054321;28;20285;-72
2023/01/13 04:58:59;;;;;;;;;;;9.30;99.90;;;;;;5054686;28;19920;-73
2023/01/13 05:01:25;;;;;;;;;;;9.70;99.90;;;;;;5037513;28;19928;-72
2023/01/13 05:03:51;;;;;;;;;;;;;;;;;;5054265;28;20370;-73
2023/01/13 05:06:16;;;;;;;;;;;9.40;99.90;;;;;;5054076;28;19924;-73
2023/01/13 05:08:41;;;;;;;;;;;9.40;99.90;;;;;;5072212;28;19921;-72
2023/01/13 05:19:19;;;;;;;;;;;9.30;99.90;;;;;;5072034;28;20453;-72
2023/01/13 05:27:13;;;;;;;;;;;9.20;99.90;;;;;;5053712;28;19924;-73
2023/01/13 05:29:39;;;;;;;;;;;9.20;99.90;;;;;;5037362;28;19920;-73
2023/01/13 05:32:07;;;;;;;;;;;9.20;99.90;;;;;;5054210;28;19943;-73
2023/01/13 05:34:32;;;;;;;;;;;9.10;99.90;;;;;;5050663;28;19921;-73
2023/01/13 05:36:58;;;;;;;;;;;9.00;99.90;;;;;;5048828;28;19943;-72
2023/01/13 05:39:23;;;;;;;;;;;9.20;99.90;;;;;;5053951;28;19921;-72
2023/01/13 05:44:33;;;;;;;;;;;9.30;99.90;;;;;;5057632;28;19920;-72
2023/01/13 05:46:58;;;;;;;;;;;9.10;99.90;;;;;;5075686;28;20011;-73
2023/01/13 05:49:23;;;;;;;;;;;9.30;99.90;;;;;;5058099;28;19989;-73
2023/01/13 05:51:49;;;;;;;;;;;9.20;99.90;;;;;;5057676;28;19920;-73
2023/01/13 05:54:14;;;;;;;;;;;9.10;99.90;;;;;;5075543;28;19925;-72
2023/01/13 05:56:40;;;;;;;;;;;9.10;99.90;;;;;;5055379;28;19965;-73
2023/01/13 05:59:06;;;;;;;;;;;9.10;99.90;;;;;;5052503;28;19920;-72
2023/01/13 06:01:31;;;;;;;;;;;9.10;99.90;;;;;;5057410;28;19947;-72
2023/01/13 06:03:57;;;;;;;;;;;9.00;99.90;;;;;;5075723;28;19944;-73
2023/01/13 06:06:22;;;;;;;;;;;9.10;99.90;;;;;;5040530;28;19932;-73
2023/01/13 06:08:48;;;;;;;;;;;9.20;99.90;;;;;;5057765;28;19920;-73
2023/01/13 06:11:13;;;;;;;;;;;9.10;99.90;;;;;;5075496;28;20015;-73
2023/01/13 06:13:39;;;;;;;;;;;9.00;99.90;;;;;;5040383;28;19927;-73
2023/01/13 06:16:04;;;;;;;;;;;9.20;99.90;;;;;;5075260;28;19920;-73
2023/01/13 06:18:30;;;;;;;;;;;9.10;99.90;;;;;;5040640;28;20382;-72
2023/01/13 06:20:55;;;;;;;;;;;9.10;99.90;;;;;;5057320;28;19925;-72
2023/01/13 06:23:21;;;;;;;;;;;9.20;99.90;;;;;;5053608;28;20330;-73
2023/01/13 06:25:50;;;;;;;;;;;8.90;99.90;;;;;;5040091;28;19928;-72
2023/01/13 06:28:16;;;;;;;;;;;9.10;99.90;;;;;;5057032;28;20394;-73
2023/01/13 06:30:44;;;;;;;;;;;9.30;99.90;;;;;;5057093;28;19928;-72
2023/01/13 06:33:13;;;;;;;;;;;9.10;99.90;;;;;;5056046;28;19920;-72
2023/01/13 06:35:40;;;;;;;;;;;8.90;99.90;;;;;;5057054;28;19927;-73
2023/01/13 06:38:08;;;;;;;;;;;8.90;99.90;;;;;;5056586;28;20386;-72
2023/01/13 06:40:34;;;;;;;;;;;8.70;99.90;;;;;;5074906;28;19928;-72
2023/01/13 06:43:14;;;;;;;;;;;8.70;99.90;;;;;;5039791;28;19920;-72
2023/01/13 06:45:45;;;;;;;;;;;8.80;99.90;;;;;;5047209;28;20409;-72
2023/01/13 06:48:11;;;;;;;;;;;8.70;99.90;;;;;;5054810;28;19931;-73
2023/01/13 06:50:36;;;;;;;;;;;8.70;99.90;;;;;;5036861;28;19921;-72
2023/01/13 06:53:02;;;;;;;;;;;9.10;99.90;;;;;;5049376;28;19969;-73
2023/01/13 06:55:27;;;;;;;;;;;8.70;99.90;;;;;;5055882;28;19928;-73
2023/01/13 06:57:54;;;;;;;;;;;8.50;99.90;;;;;;5056657;28;20194;-72
2023/01/13 07:00:20;;;;;;;;;;;8.50;99.90;;;;;;5056866;28;19943;-72
2023/01/13 07:02:46;;;;;;;;;;;8.30;99.90;;;;;;5074023;28;19924;-72
2023/01/13 07:05:12;;;;;;;;;;;;;;;;;;5056367;28;20397;-72
2023/01/13 07:07:41;;;;;;;;;;;;;;;;;;5056485;28;19982;-72
2023/01/13 07:10:11;;;;;;;;;;;;;;;;;;5049642;28;19975;-72
2023/01/13 07:15:17;;;;;;;;;;;;;;;;;;5051721;28;19928;-72
2023/01/13 07:15:23;;;;;;;;;;;;;;;;;;5067194;28;20076;-72
2023/01/13 07:17:49;;;;;;;;;;;;;;;;;;5050953;28;20740;-72
2023/01/13 07:20:15;;;;;;;;;;;;;;;;;;5041486;28;19955;-72
2023/01/13 07:22:41;;;;;;;;;;;;;;;;;;5031611;28;19978;-72
2023/01/13 07:25:07;;;;;;;;;;;;;;;;;;5069216;28;19932;-73
2023/01/13 07:27:33;;;;;;;;;;;;;;;;;;5041772;28;19924;-72
2023/01/13 07:29:58;;;;;;;;;;;8.30;99.90;;;;;;5042164;28;20283;-70
2023/01/13 07:32:24;;;;;;;;;;;;;;;;;;5049705;28;19931;-72
2023/01/13 07:34:50;;;;;;;;;;;;;;;;;;5060426;28;19920;-72
2023/01/13 07:37:16;;;;;;;;;;;;;;;;;;5048985;28;20353;-72
2023/01/13 07:39:44;;;;;;;;;;;;;;;;;;5062784;28;19925;-71
2023/01/13 07:44:54;;;;;;;;;;;;;;;;;;5052409;28;20003;-71
2023/01/13 07:47:22;;;;;;;;;;;8.50;99.90;;;;;;5049103;28;20342;-69
2023/01/13 07:49:48;;;;;;;;;;;;;;;;;;5048486;28;19980;-70
2023/01/13 07:52:13;;;;;;;;;;;;;;;;;;5066915;28;19960;-72
2023/01/13 07:54:40;;;;;;;;;;;;;;;;;;5031672;28;19931;-73
2023/01/13 07:57:05;;;;;;;;;;;;;;;;;;5027069;28;19928;-72
2023/01/13 07:59:31;;;;;;;;;;;8.70;99.90;;;;;;5068332;28;19954;-72
2023/01/13 08:01:57;;;;;;;;;;;;;;;;;;5064369;28;19921;-72
2023/01/13 08:04:23;;;;;;;;;;;;;;;;;;5066161;28;20041;-72
2023/01/13 08:06:49;;;;;;;;;;;;;;;;;;5050562;28;19980;-71
2023/01/13 08:09:15;;;;;;;;;;;;;;;;;;5048750;28;19960;-73
2023/01/13 08:11:40;;;;;;;;;;;;;;;;;;5051357;28;19920;-71
2023/01/13 08:14:06;;;;;;;;;;;;;;;;;;5044963;28;19924;-71
2023/01/13 08:16:32;;;;;;;;;;;;;;;;;;5045642;28;20585;-71
2023/01/13 08:18:58;;;;;;;;;;;;;;;;;;5028178;28;19963;-69
2023/01/13 08:21:24;;;;;;;;;;;;;;;;;;5056439;28;19984;-72
2023/01/13 08:23:50;;;;;;;;;;;8.90;99.90;;;;;;5050917;28;19966;-71
2023/01/13 08:26:16;;;;;;;;;;;;;;;;;;5020837;28;19938;-72
2023/01/13 08:28:43;;;;;;;;;;;;;;;;;;5048779;28;20398;-71
2023/01/13 08:31:10;;;;;;;;;;;;;;;;;;5033672;28;20350;-71
2023/01/13 08:33:36;;;;;;;;;;;;;;;;;;5043019;28;19928;-69
2023/01/13 08:36:03;;;;;;;;;;;8.90;99.90;;;;;;5047171;28;19920;-71
2023/01/13 08:38:28;;;;;;;;;;;;;;;;;;5048560;28;20458;-72
2023/01/13 08:40:54;;;;;;;;;;;;;;;;;;5061892;28;19972;-72
2023/01/13 08:43:20;;;;;;;;;;;;;;;;;;5054755;28;20273;-71
2023/01/13 08:45:54;;;;;;;;;;;9.00;99.90;;;;;;5046259;28;19920;-71
2023/01/13 08:48:19;;;;;;;;;;;9.00;99.90;;;;;;5037169;28;19928;-72
2023/01/13 08:50:45;;;;;;;;;;;;;;;;;;5036975;28;19925;-72
2023/01/13 08:53:11;;;;;;;;;;;;;;;;;;5057391;28;19924;-72
2023/01/13 08:55:38;;;;;;;;;;;8.60;99.90;;;;;;5051655;28;19932;-70
2023/01/13 08:58:04;;;;;;;;;;;;;;;;;;5044987;28;19921;-72
2023/01/13 09:00:30;;;;;;;;;;;;;;;;;;5053907;28;20007;-72
2023/01/13 09:02:56;;;;;;;;;;;;;;;;;;5052046;28;20413;-70
2023/01/13 09:05:22;;;;;;;;;;;;;;;;;;5017154;28;19921;-72
2023/01/13 09:07:48;;;;;;;;;;;;;;;;;;5016753;28;19931;-72
2023/01/13 09:10:13;;;;;;;;;;;8.30;99.90;;;;;;5050901;28;20409;-71
2023/01/13 09:15:24;;;;;;;;;;;;;;;;;;5032811;28;19928;-72
2023/01/13 09:17:49;;;;;;;;;;;8.50;99.90;;;;;;5032485;28;19971;-72
2023/01/13 09:20:15;;;;;;;;;;;;;;;;;;5050821;28;19940;-72
2023/01/13 09:22:41;;;;;;;;;;;;;;;;;;5033259;28;20382;-72
2023/01/13 09:25:07;;;;;;;;;;;;;;;;;;5047716;28;19921;-72
2023/01/13 09:27:33;;;;;;;;;;;8.40;99.90;;;;;;5052802;28;19932;-72
2023/01/13 09:29:59;;;;;;;;;;;;;;;;;;5041491;28;20014;-72
2023/01/13 09:32:24;;;;;;;;;;;8.40;99.90;;;;;;5040559;28;19928;-72
2023/01/13 09:34:59;;;;;;;;;;;;;;;;;;5016438;28;19928;-72
2023/01/13 09:37:33;;;;;;;;;;;8.70;99.90;;;;;;5050320;28;19921;-71
2023/01/13 09:39:58;;;;;;;;;;;;;;;;;;5049370;28;19921;-71
2023/01/13 09:45:09;;;;;;;;;;;;;;;;;;5056683;28;19928;-71
2023/01/13 09:47:35;;;;;;;;;;;;;;;;;;5053008;28;19924;-72
2023/01/13 09:50:01;;;;;;;;;;;;;;;;;;5049992;28;20306;-72
2023/01/13 09:52:27;;;;;;;;;;;;;;;;;;5051617;28;19920;-71
2023/01/13 09:54:53;;;;;;;;;;;;;;;;;;5053072;28;20377;-72
2023/01/13 09:57:19;;;;;;;;;;;8.40;99.90;;;;;;5052502;28;20244;-71
2023/01/13 09:59:45;;;;;;;;;;;8.40;99.90;;;;;;5069320;28;19924;-70
2023/01/13 10:02:28;;;;;;;;;;;8.40;99.90;;;;;;5050435;28;20299;-72
2023/01/13 10:04:54;;;;;;;;;;;;;;;;;;5051295;28;19921;-72
2023/01/13 10:07:19;;;;;;;;;;;8.40;99.90;;;;;;5052403;28;19931;-72
2023/01/13 10:09:44;;;;;;;;;;;8.60;99.90;;;;;;5041230;28;20324;-72
2023/01/13 10:14:55;;;;;;;;;;;8.70;99.90;;;;;;5064799;28;20019;-72
2023/01/13 10:17:21;;;;;;;;;;;;;;;;;;5039332;28;19972;-72
2023/01/13 10:19:46;;;;;;;;;;;;;;;;;;5031334;28;19921;-71
2023/01/13 10:22:14;;;;;;;;;;;;;;;;;;5067241;28;19920;-72
2023/01/13 10:24:39;;;;;;;;;;;;;;;;;;5103905;22;19962;-73
2023/01/13 10:27:05;;;;;;;;;;;;;;;;;;5090778;28;19928;-72
2023/01/13 10:29:31;;;;;;;;;;;8.60;99.90;;;;;;5077315;28;20309;-72
2023/01/13 10:31:57;;;;;;;;;;;;;;;;;;5095329;28;19966;-72
2023/01/13 10:34:23;;;;;;;;;;;8.90;99.90;;;;;;5077873;28;19932;-72
2023/01/13 10:37:05;;;;;;;;;;;8.70;99.90;;;;;;5077297;28;19920;-73
2023/01/13 10:39:31;;;;;;;;;;;;;;;;;;5077650;28;19920;-72
2023/01/13 10:42:03;;;;;;;;;;;8.80;99.90;;;;;;5060390;28;19920;-72
2023/01/13 10:44:29;;;;;;;;;;;;;;;;;;5094977;28;19920;-72
2023/01/13 10:46:56;;;;;;;;;;;8.90;99.90;;;;;;5059965;28;20297;-72
2023/01/13 10:49:31;;;;;;;;;;;8.80;99.90;;;;;;5060051;28;19987;-72
2023/01/13 10:51:57;;;;;;;;;;;;;;;;;;5075402;28;20002;-72
2023/01/13 10:54:24;;;;;;;;;;;8.80;99.90;;;;;;5060114;28;19949;-72
2023/01/13 10:57:09;;;;;;;;;;;9.10;99.90;;;;;;5090651;28;19985;-75
2023/01/13 10:59:34;;;;;;;;;;;8.90;99.90;;;;;;5073993;28;19966;-72
2023/01/13 11:02:01;;;;;;;;;;;8.70;99.90;;;;;;5040143;28;19920;-73
2023/01/13 11:04:29;;;;;;;;;;;8.90;99.90;;;;;;5056596;28;19920;-73
2023/01/13 11:06:54;;;;;;;;;;;8.90;99.90;;;;;;5074034;28;20423;-73
2023/01/13 11:09:21;;;;;;;;;;;;;;;;;;5081487;28;20036;-73
2023/01/13 11:11:54;;;;;;;;;;;9.00;99.90;;;;;;5094022;28;19933;-73
2023/01/13 11:14:32;;;;;;;;;;;9.00;99.90;;;;;;5076024;28;19971;-74
2023/01/13 11:16:57;;;;;;;;;;;;;;;;;;5094627;28;20262;-75
2023/01/13 11:19:26;;;;;;;;;;;9.20;99.90;;;;;;5076731;28;19954;-73
2023/01/13 11:22:12;;;;;;;;;;;9.20;99.90;;;;;;5059401;28;19928;-73
2023/01/13 11:24:41;;;;;;;;;;;9.00;99.90;;;;;;5065397;28;19920;-72
2023/01/13 11:27:07;;;;;;;;;;;;;;;;;;5093848;28;19939;-73
2023/01/13 11:29:38;;;;;;;;;;;9.30;99.90;;;;;;5076042;28;19924;-74
2023/01/13 11:32:24;;;;;;;;;;;9.30;99.90;;;;;;5059789;28;19943;-72
2023/01/13 11:34:54;;;;;;;;;;;9.30;99.90;;;;;;5093643;28;19946;-73
2023/01/13 11:37:20;;;;;;;;;;;9.20;99.90;;;;;;5059207;28;20259;-73
2023/01/13 11:39:45;;;;;;;;;;;;;;;;;;5058472;28;19926;-73
2023/01/13 11:42:30;;;;;;;;;;;9.10;99.90;;;;;;5075508;28;19943;-72
2023/01/13 11:45:00;;;;;;;;;;;9.20;99.90;;;;;;5075642;28;19920;-73
2023/01/13 11:47:26;;;;;;;;;;;;;;;;;;5093487;28;19924;-75
2023/01/13 11:49:52;;;;;;;;;;;9.00;99.90;;;;;;5075772;28;19927;-75
2023/01/13 11:52:26;;;;;;;;;;;9.40;99.90;;;;;;5075596;28;20301;-73
2023/01/13 11:55:01;;;;;;;;;;;9.20;99.90;;;;;;5093330;28;19927;-73
2023/01/13 11:57:27;;;;;;;;;;;;;;;;;;5092920;28;19966;-73
2023/01/13 11:59:56;;;;;;;;;;;9.50;99.90;;;;;;5075268;28;20282;-74
2023/01/13 12:02:21;;;;;;;;;;;;;;;;;;5075177;28;19927;-74
2023/01/13 12:05:02;;;;;;;;;;;9.20;99.90;;;;;;5092910;28;19920;-73
2023/01/13 12:07:27;;;;;;;;;;;9.30;99.90;;;;;;5092706;28;19924;-74
2023/01/13 12:10:02;;;;;;;;;;;9.40;99.90;;;;;;5074581;28;19924;-74
2023/01/13 12:12:31;;;;;;;;;;;;;;;;;;5058087;28;20373;-73
2023/01/13 12:15:26;;;;;;;;;;;9.60;99.90;;;;;;5058779;28;19922;-74
2023/01/13 12:17:59;;;;;;;;;;;9.40;99.90;;;;;;5061701;28;20002;-73
2023/01/13 12:20:25;;;;;;;;;;;;;;;;;;5055216;28;20336;-73
2023/01/13 12:22:51;;;;;;;;;;;;;;;;;;5073500;28;19920;-73
2023/01/13 12:25:19;;;;;;;;;;;9.40;99.90;;;;;;5053990;28;19972;-74
2023/01/13 12:27:45;;;;;;;;;;;;;;;;;;5054104;28;19978;-73
2023/01/13 12:30:46;;;;;;;;;;;9.50;99.90;;;;;;5055124;28;19920;-74
2023/01/13 12:33:22;;;;;;;;;;;9.50;99.90;;;;;;5010191;28;20019;-73
2023/01/13 12:35:56;;;;;;;;;;;9.50;99.90;;;;;;5045607;28;19920;-73
2023/01/13 12:38:22;;;;;;;;;;;;;;;;;;5054075;28;19920;-74
2023/01/13 12:40:48;;;;;;;;;;;;;;;;;;5071462;28;19924;-73
2023/01/13 12:46:19;;;;;;;;;;;9.50;99.90;;;;;;5054040;28;19974;-73
2023/01/13 12:48:58;;;;;;;;;;;9.50;99.90;;;;;;5071542;28;19931;-74
2023/01/13 12:51:23;;;;;;;;;;;9.60;99.90;;;;;;5052660;28;19932;-73
2023/01/13 12:53:49;;;;;;;;;;;;;;;;;;5053473;28;19920;-71
2023/01/13 12:56:33;;;;;;;;;;;9.70;99.90;;;;;;5036318;28;19974;-73
2023/01/13 12:58:59;;;;;;;;;;;;;;;;;;5053477;28;20396;-72
2023/01/13 13:01:25;;;;;;;;;;;;;;;;;;5053638;28;19950;-73
2023/01/13 13:04:11;;;;;;;;;;;9.50;99.90;;;;;;5053169;28;19935;-75
2023/01/13 13:06:38;;;;;;;;;;;9.40;99.90;;;;;;5051729;28;19971;-72
2023/01/13 13:09:05;;;;;;;;;;;9.50;99.90;;;;;;5053756;28;19971;-72
2023/01/13 13:14:20;;;;;;;;;;;;;;;;;;5071264;28;19921;-72
2023/01/13 13:16:46;;;;;;;;;;;;;;;;;;5057529;28;19924;-75
2023/01/13 13:19:14;;;;;;;;;;;9.70;99.90;;;;;;5091675;28;19924;-75
2023/01/13 13:21:58;;;;;;;;;;;9.50;99.90;;;;;;5072802;28;19985;-72
2023/01/13 13:24:24;;;;;;;;;;;9.50;99.90;;;;;;5072849;28;19928;-73
2023/01/13 13:26:50;;;;;;;;;;;;;;;;;;5055588;28;19932;-73
2023/01/13 13:29:22;;;;;;;;;;;9.40;99.90;;;;;;5072449;28;20381;-73
2023/01/13 13:32:05;;;;;;;;;;;9.30;99.90;;;;;;5072384;28;19920;-72
2023/01/13 13:34:42;;;;;;;;;;;9.60;99.90;;;;;;5055694;28;19927;-72
2023/01/13 13:37:15;;;;;;;;;;;9.60;99.90;;;;;;5072853;28;20289;-73
2023/01/13 13:48:20;;;;;;;;;;;9.50;99.90;;;;;;5079933;28;20336;-73
2023/01/13 13:50:49;;;;;;;;;;;9.30;99.90;;;;;;5038860;28;20378;-73
2023/01/13 13:53:17;;;;;;;;;;;9.60;99.90;;;;;;5070108;28;19920;-75
2023/01/13 13:55:51;;;;;;;;;;;9.40;99.90;;;;;;5089518;28;19935;-73
2023/01/13 13:58:17;;;;;;;;;;;9.50;99.90;;;;;;5068959;28;19920;-74
2023/01/13 14:00:42;;;;;;;;;;;;;;;;;;5072429;28;19947;-74
2023/01/13 14:03:23;;;;;;;;;;;9.50;99.90;;;;;;5092685;28;19927;-74
2023/01/13 14:06:05;;;;;;;;;;;9.30;99.90;;;;;;5077774;28;20263;-74
2023/01/13 14:08:35;;;;;;;;;;;9.30;99.90;;;;;;5077718;28;19924;-74
2023/01/13 14:11:01;;;;;;;;;;;9.50;99.90;;;;;;5060801;28;20401;-74
2023/01/13 14:13:27;;;;;;;;;;;9.20;99.90;;;;;;5095919;28;19928;-74
2023/01/13 14:15:56;;;;;;;;;;;9.40;99.90;;;;;;5054731;28;20377;-74
2023/01/13 14:18:22;;;;;;;;;;;;;;;;;;5093249;28;19927;-74
2023/01/13 14:20:55;;;;;;;;;;;9.50;99.90;;;;;;5095650;28;19920;-73
2023/01/13 14:23:23;;;;;;;;;;;9.60;99.90;;;;;;5060482;28;19920;-74
2023/01/13 14:25:50;;;;;;;;;;;9.50;99.90;;;;;;5077290;28;19927;-74
2023/01/13 14:28:33;;;;;;;;;;;9.40;99.90;;;;;;5077433;28;19964;-74
2023/01/13 14:31:00;;;;;;;;;;;9.50;99.90;;;;;;5077254;28;20053;-74
2023/01/13 14:33:33;;;;;;;;;;;9.50;99.90;;;;;;5077234;28;19973;-74
2023/01/13 14:35:59;;;;;;;;;;;;;;;;;;5076798;28;19924;-74
2023/01/13 14:38:25;;;;;;;;;;;9.60;99.90;;;;;;5077018;28;19920;-74
2023/01/13 14:40:50;;;;;;;;;;;9.30;99.90;;;;;;5095100;28;20409;-74
2023/01/13 14:43:18;;;;;;;;;;;9.50;99.90;;;;;;5095160;28;19920;-74
2023/01/13 14:45:44;;;;;;;;;;;;;;;;;;5076503;28;19927;-74
2023/01/13 14:48:10;;;;;;;;;;;;;;;;;;5076833;28;19924;-74
2023/01/13 14:50:35;;;;;;;;;;;9.50;99.90;;;;;;5095351;28;19943;-74
2023/01/13 14:53:01;;;;;;;;;;;9.10;99.90;;;;;;5066393;28;19966;-74
2023/01/13 14:55:28;;;;;;;;;;;9.50;99.90;;;;;;5074812;28;19970;-74
2023/01/13 14:58:13;;;;;;;;;;;9.20;99.90;;;;;;5057293;28;20289;-74
2023/01/13 15:00:39;;;;;;;;;;;9.20;99.90;;;;;;5056392;28;19928;-74
2023/01/13 15:03:06;;;;;;;;;;;9.20;99.90;;;;;;5056590;28;19925;-74
2023/01/13 15:05:32;;;;;;;;;;;9.20;99.90;;;;;;5039595;28;19966;-74
2023/01/13 15:07:58;;;;;;;;;;;;;;;;;;5056413;28;20385;-74
2023/01/13 15:10:23;;;;;;;;;;;9.30;99.90;;;;;;5074667;28;19926;-74
2023/01/13 15:12:49;;;;;;;;;;;;;;;;;;5056436;28;20300;-74
2023/01/13 15:15:17;;;;;;;;;;;9.10;99.90;;;;;;5073008;28;20089;-74
2023/01/13 15:17:45;;;;;;;;;;;9.10;99.90;;;;;;5068623;28;19928;-74
2023/01/13 15:20:18;;;;;;;;;;;9.10;99.90;;;;;;5094654;28;19926;-74
2023/01/13 15:22:44;;;;;;;;;;;9.10;99.90;;;;;;5076585;28;20214;-74
2023/01/13 15:25:09;;;;;;;;;;;9.40;99.90;;;;;;5076067;28;19920;-73
2023/01/13 15:27:36;;;;;;;;;;;9.20;99.90;;;;;;5075963;28;20377;-74
2023/01/13 15:30:21;;;;;;;;;;;9.10;99.90;;;;;;5094775;28;19927;-74
2023/01/13 15:32:46;;;;;;;;;;;9.30;99.90;;;;;;5077039;28;19920;-74
2023/01/13 15:35:12;;;;;;;;;;;;;;;;;;5075824;28;20027;-73
2023/01/13 15:37:38;;;;;;;;;;;;;;;;;;5059470;28;19973;-76
2023/01/13 15:40:04;;;;;;;;;;;;;;;;;;5075621;28;19921;-73
2023/01/13 15:47:58;;;;;;;;;;;9.30;99.90;;;;;;5075700;28;19924;-73
2023/01/13 15:50:24;;;;;;;;;;;9.30;99.90;;;;;;5075599;28;19920;-73
2023/01/13 15:52:49;;;;;;;;;;;9.30;99.90;;;;;;5075976;28;19927;-73
2023/01/13 15:55:15;;;;;;;;;;;9.20;99.90;;;;;;5093434;28;19920;-73
2023/01/13 15:57:44;;;;;;;;;;;9.10;99.90;;;;;;5075759;28;19920;-73
2023/01/13 16:00:14;;;;;;;;;;;9.20;99.90;;;;;;5075436;28;19927;-73
2023/01/13 16:02:40;;;;;;;;;;;9.10;99.90;;;;;;5075556;28;20374;-73
2023/01/13 16:05:05;;;;;;;;;;;8.90;99.90;;;;;;5092605;28;19920;-73
2023/01/13 16:07:31;;;;;;;;;;;9.10;99.90;;;;;;5093027;28;19924;-73
2023/01/13 16:09:58;;;;;;;;;;;;;;;;;;5092095;28;19920;-73